Balcom, Illinois
Current Conditions -  °F | °C
As of 9:50 AM on Friday 19 Dec 2014 (Local Time) from KMWA Reporting Station
Overcast Overcast  
Wind Chill: -2°   Ceiling: 3600
Heat Index:   Visibility: 7mi
Dew Point: -2°   Wind: 7mph
Humidity: 81%   Direction: 60°ENE
Pressure: 30.34"   Gusts: NA
Location:  37.5014°N, 89.1464°W
Report Text: KMWA 191550Z 06006KT 7SM SCT036 OVC036 01/M02 A3034
Loading
Personal Weather Stations






























Interactive Weather Map New forecast layout! Learn more

10-Day Weather Forecast

Advertisements
Track Severe Weather on mobile